Manistee County-Blacker Airport

Airport
ICAO code: 
KMBL
Summary
ICAO Region: 
NAM
Territory: 
Location: 
Manistee, Michigan,
Coordinates: 
Aerial View: 
44° 16' 19.999" N, 86° 14' 48.001" W
Airport CFIT: 
Altimeter Temperature Error Correction
Airport GND: 
Aircraft Ground De/Anti Icing
Airport WX: 
Lake Effect Snow
Metar
Observation
KMBL 070856Z AUTO 28009KT 9SM -SN OVC025 M09/M13 A3018 RMK AO2 SLPNO P0000 60000 T10941128 51014 FZRANO
Station
Manistee, Manistee County-Blacker Airport
Date/Time
2021-12-07 08:56:00
Wind direction
280°
Wind speed
09 kts
Lowest cloud amount
overcast
Temperature
-9.4°C
Dew point
-12.8°C
Humidity
76%
Weather condition
light snow

Description

Manistee County-Blacker Airport is a public use airport located 6 km northeast of the central business district of Manistee, a city in Manistee County, Michigan.

Climatology

Humid Continental climate (Köppen climate classification Dfb) - Variable weather patterns and a large seasonal temperature variance. Summers are often warm and humid with frequent thunderstorms and winters can be very cold with frequent snowfall and persistent snow cover.

Runways

Designator Length Width Surface Rops
18/36 829 23 ASP Yes/Yes
9/27 1677 30 ASP Yes/Yes
Airport map: 
Aerial View: 

SKYbrary Partners:

Safety knowledge contributed by: